This is the latest recevied weather packets stored in our database for station/object K3MV-13. If no packets are shown the sender has not sent any weather packets the latest 10 day(s).
| Time | Temp. | Humidity | Pressure | Rain* | Wind** | Luminosity | Snow |
|---|---|---|---|---|---|---|---|
| 1777754372 | 7.22° C | 58% | 1013 hPa | 0 mm | - | 186 W/m² | - |
| 1777754069 | 7.22° C | 57% | 1013.2 hPa | 0 mm | - | 163 W/m² | - |
| 1777753764 | 7.78° C | 56% | 1013.1 hPa | 0 mm | - | 187 W/m² | - |
| 1777753461 | 7.78° C | 55% | 1013.1 hPa | 0 mm | - | 174 W/m² | - |
| 1777753160 | 7.78° C | 55% | 1013 hPa | 0 mm | - | 245 W/m² | - |
| 1777752855 | 8.33° C | 55% | 1013.1 hPa | 0 mm | - | 207 W/m² | - |
| 1777752553 | 7.22° C | 57% | 1013.3 hPa | 0 mm | - | 304 W/m² | - |
| 1777752247 | 7.22° C | 57% | 1013.3 hPa | 0 mm | - | 169 W/m² | - |
| 1777751946 | 7.22° C | 58% | 1013.5 hPa | 0 mm | - | 165 W/m² | - |
| 1777751643 | 7.22° C | 60% | 1013.5 hPa | 0 mm | - | 210 W/m² | - |
| 1777751339 | 7.22° C | 58% | 1013.3 hPa | 0 mm | - | 224 W/m² | - |
| 1777751036 | 7.22° C | 58% | 1013.5 hPa | 0 mm | - | 252 W/m² | - |
| 1777750732 | 7.78° C | 59% | 1013.6 hPa | 0 mm | - | 276 W/m² | - |
| 1777750429 | 7.22° C | 59% | 1013.4 hPa | 0 mm | - | 292 W/m² | - |
| 1777750124 | 6.67° C | 61% | 1013.5 hPa | 0 mm | - | 221 W/m² | - |
| 1777749822 | 7.22° C | 57% | 1013.6 hPa | 0 mm | - | 108 W/m² | - |
| 1777749519 | 7.22° C | 56% | 1013.6 hPa | 0 mm | - | 87 W/m² | - |
| 1777749217 | 7.78° C | 56% | 1013.8 hPa | 0 mm | - | 114 W/m² | - |
| 1777748914 | 7.78° C | 57% | 1013.6 hPa | 0 mm | - | 177 W/m² | - |
| 1777748611 | 7.78° C | 59% | 1013.7 hPa | 0 mm | - | 269 W/m² | - |
| 1777748307 | 7.78° C | 55% | 1013.9 hPa | 0 mm | - | 153 W/m² | - |
| 1777748002 | 8.33° C | 58% | 1013.9 hPa | 0 mm | - | 186 W/m² | - |
| 1777747700 | 7.78° C | 59% | 1013.9 hPa | 0 mm | - | 363 W/m² | - |
| 1777747395 | 7.78° C | 58% | 1013.9 hPa | 0 mm | - | 480 W/m² | - |
| 1777747092 | 7.22° C | 60% | 1014 hPa | 0 mm | - | 679 W/m² | - |
* Rain latest hour (hover to see other rain measurements)
** Current wind speed in m/s (hover to see current wind gust speed)